Time,TemperatureF,DewpointF,PressureIn,WindDirection,WindDirectionDegrees,WindSpeedMPH,WindSpeedGustMPH,Humidity,HourlyPrecipIn,Conditions,Clouds,dailyrainin,SoftwareType,DateUTC
2013-08-07 00:00:00,62.5,59.2,18.34,NNE,16,1.0,6.0,89,0.00,,,0.00,Wunderground v.1.15,2013-08-07 04:00:00,
2013-08-07 00:05:00,62.6,59.6,18.34,North,4,2.0,6.0,90,0.00,,,0.00,Wunderground v.1.15,2013-08-07 04:05:00,
2013-08-07 00:10:00,62.6,59.6,18.34,North,8,3.0,3.0,90,0.00,,,0.00,Wunderground v.1.15,2013-08-07 04:10:00,
2013-08-07 00:15:00,62.7,59.7,18.34,NNE,13,3.0,3.0,90,0.00,,,0.00,Wunderground v.1.15,2013-08-07 04:15:00,
2013-08-07 00:20:00,62.7,59.7,18.34,NNE,14,3.0,3.0,90,0.00,,,0.00,Wunderground v.1.15,2013-08-07 04:20:00,
2013-08-07 00:25:00,62.7,59.7,18.34,North,10,3.0,6.0,90,0.00,,,0.00,Wunderground v.1.15,2013-08-07 04:25:00,
2013-08-07 00:30:00,62.7,59.7,18.34,NNE,21,5.0,6.0,90,0.00,,,0.00,Wunderground v.1.15,2013-08-07 04:30:00,
2013-08-07 00:35:00,62.7,59.7,18.34,North,8,5.0,7.0,90,0.00,,,0.00,Wunderground v.1.15,2013-08-07 04:35:00,
2013-08-07 00:45:00,62.9,59.6,18.34,NE,47,5.0,7.0,89,0.00,,,0.00,Wunderground v.1.15,2013-08-07 04:45:00,
2013-08-07 00:50:00,62.9,59.6,18.34,NNE,31,4.0,4.0,89,0.00,,,0.00,Wunderground v.1.15,2013-08-07 04:50:00,
2013-08-07 00:55:00,62.9,59.6,18.34,NNW,348,4.0,5.0,89,0.00,,,0.00,Wunderground v.1.15,2013-08-07 04:55:00,
2013-08-07 01:00:00,62.9,59.6,18.34,ENE,57,4.0,4.0,89,0.00,,,0.00,Wunderground v.1.15,2013-08-07 05:00:00,
2013-08-07 01:10:00,62.8,59.5,18.34,NE,55,3.0,3.0,89,0.00,,,0.00,Wunderground v.1.15,2013-08-07 05:10:00,
2013-08-07 01:15:00,62.7,59.4,18.34,NE,55,3.0,4.0,89,0.00,,,0.00,Wunderground v.1.15,2013-08-07 05:15:00,
2013-08-07 01:20:00,62.7,59.4,18.34,North,1,3.0,3.0,89,0.00,,,0.00,Wunderground v.1.15,2013-08-07 05:20:00,
2013-08-07 01:25:00,62.7,59.4,18.34,North,4,4.0,4.0,89,0.00,,,0.00,Wunderground v.1.15,2013-08-07 05:25:00,
2013-08-07 01:30:00,62.8,59.5,18.34,NE,49,4.0,4.0,89,0.00,,,0.00,Wunderground v.1.15,2013-08-07 05:30:00,
2013-08-07 01:35:00,62.8,59.5,18.34,NE,38,4.0,5.0,89,0.00,,,0.00,Wunderground v.1.15,2013-08-07 05:35:00,
2013-08-07 01:40:00,62.8,59.5,18.34,ENE,59,4.0,12.0,89,0.00,,,0.00,Wunderground v.1.15,2013-08-07 05:40:00,
2013-08-07 01:45:00,62.7,59.4,18.34,NE,54,5.0,12.0,89,0.00,,,0.00,Wunderground v.1.15,2013-08-07 05:45:00,
2013-08-07 01:50:00,62.6,59.3,18.34,NE,49,5.0,5.0,89,0.00,,,0.00,Wunderground v.1.15,2013-08-07 05:50:00,
2013-08-07 01:55:00,62.3,59.0,18.34,NNE,25,4.0,12.0,89,0.00,,,0.00,Wunderground v.1.15,2013-08-07 05:55:00,
2013-08-07 02:00:00,62.2,58.9,18.34,North,1,3.0,3.0,89,0.00,,,0.00,Wunderground v.1.15,2013-08-07 06:00:00,
2013-08-07 02:10:00,62.0,59.0,18.34,NE,43,3.0,3.0,90,0.00,,,0.00,Wunderground v.1.15,2013-08-07 06:10:00,
2013-08-07 02:15:00,61.8,58.8,18.34,NE,42,3.0,3.0,90,0.00,,,0.00,Wunderground v.1.15,2013-08-07 06:15:00,
2013-08-07 02:20:00,61.8,58.8,18.34,NE,55,3.0,6.0,90,0.00,,,0.00,Wunderground v.1.15,2013-08-07 06:20:00,
2013-08-07 02:25:00,61.7,59.0,18.34,NE,55,4.0,6.0,91,0.00,,,0.00,Wunderground v.1.15,2013-08-07 06:25:00,
2013-08-07 02:30:00,61.7,59.0,18.34,NE,56,4.0,5.0,91,0.00,,,0.00,Wunderground v.1.15,2013-08-07 06:30:00,
2013-08-07 02:35:00,61.7,59.0,18.34,NE,51,5.0,11.0,91,0.00,,,0.00,Wunderground v.1.15,2013-08-07 06:35:00,
2013-08-07 02:40:00,61.6,58.9,18.34,NE,49,4.0,4.0,91,0.00,,,0.00,Wunderground v.1.15,2013-08-07 06:40:00,
2013-08-07 02:45:00,61.6,58.9,18.34,NE,46,3.0,6.0,91,0.00,,,0.00,Wunderground v.1.15,2013-08-07 06:45:00,
2013-08-07 02:50:00,61.7,59.4,18.34,NE,46,4.0,11.0,92,0.00,,,0.00,Wunderground v.1.15,2013-08-07 06:50:00,
2013-08-07 03:00:00,61.7,59.0,18.34,ENE,66,6.0,7.0,91,0.00,,,0.00,Wunderground v.1.15,2013-08-07 07:00:00,
2013-08-07 03:10:00,61.9,59.2,18.34,ENE,68,6.0,7.0,91,0.00,,,0.00,Wunderground v.1.15,2013-08-07 07:10:00,
2013-08-07 03:15:00,62.1,59.4,18.34,NE,49,7.0,7.0,91,0.00,,,0.00,Wunderground v.1.15,2013-08-07 07:15:00,
2013-08-07 03:25:00,62.1,59.4,18.34,ENE,61,5.0,8.0,91,0.00,,,0.00,Wunderground v.1.15,2013-08-07 07:25:00,
2013-08-07 03:35:00,62.0,59.3,18.34,NE,54,6.0,9.0,91,0.00,,,0.00,Wunderground v.1.15,2013-08-07 07:35:00,
2013-08-07 03:40:00,62.0,59.3,18.34,NE,45,5.0,9.0,91,0.00,,,0.00,Wunderground v.1.15,2013-08-07 07:40:00,
2013-08-07 03:55:00,62.0,59.3,18.34,North,3,5.0,9.0,91,0.00,,,0.00,Wunderground v.1.15,2013-08-07 07:55:00,
2013-08-07 04:00:00,62.0,59.3,18.34,NNE,23,5.0,5.0,91,0.00,,,0.00,Wunderground v.1.15,2013-08-07 08:00:00,
2013-08-07 04:10:00,61.9,59.2,18.34,NNE,26,5.0,5.0,91,0.00,,,0.00,Wunderground v.1.15,2013-08-07 08:10:00,
2013-08-07 04:15:00,61.9,59.2,18.34,NNE,26,5.0,5.0,91,0.00,,,0.00,Wunderground v.1.15,2013-08-07 08:15:00,
2013-08-07 04:20:00,61.9,59.2,18.34,NE,35,5.0,5.0,91,0.00,,,0.00,Wunderground v.1.15,2013-08-07 08:20:00,
2013-08-07 04:25:00,61.9,59.2,18.34,NE,37,5.0,5.0,91,0.00,,,0.00,Wunderground v.1.15,2013-08-07 08:25:00,
2013-08-07 04:30:00,62.0,59.3,18.34,NNE,12,5.0,5.0,91,0.00,,,0.00,Wunderground v.1.15,2013-08-07 08:30:00,
2013-08-07 04:40:00,61.9,59.2,18.34,NE,46,5.0,10.0,91,0.00,,,0.00,Wunderground v.1.15,2013-08-07 08:40:00,
2013-08-07 04:45:00,61.9,59.2,18.34,NE,47,6.0,10.0,91,0.00,,,0.00,Wunderground v.1.15,2013-08-07 08:45:00,
2013-08-07 04:50:00,61.8,59.1,18.34,NNE,23,6.0,6.0,91,0.00,,,0.00,Wunderground v.1.15,2013-08-07 08:50:00,
2013-08-07 04:55:00,61.6,59.3,18.34,NNE,32,4.0,10.0,92,0.00,,,0.00,Wunderground v.1.15,2013-08-07 08:55:00,
2013-08-07 05:00:00,61.6,59.3,18.34,ENE,57,5.0,5.0,92,0.00,,,0.00,Wunderground v.1.15,2013-08-07 09:00:00,
2013-08-07 05:10:00,61.5,59.2,18.34,NE,42,4.0,5.0,92,0.00,,,0.00,Wunderground v.1.15,2013-08-07 09:10:00,
2013-08-07 05:15:00,61.5,59.2,18.34,ENE,57,4.0,5.0,92,0.00,,,0.00,Wunderground v.1.15,2013-08-07 09:15:00,
2013-08-07 05:20:00,61.4,59.1,18.34,North,5,3.0,3.0,92,0.00,,,0.00,Wunderground v.1.15,2013-08-07 09:20:00,
2013-08-07 05:25:00,61.4,59.1,18.34,NNE,24,3.0,5.0,92,0.00,,,0.00,Wunderground v.1.15,2013-08-07 09:25:00,
2013-08-07 05:30:00,61.3,59.0,18.34,North,8,4.0,4.0,92,0.00,,,0.00,Wunderground v.1.15,2013-08-07 09:30:00,
2013-08-07 05:35:00,61.4,59.1,18.34,NE,56,5.0,10.0,92,0.00,,,0.00,Wunderground v.1.15,2013-08-07 09:35:00,
2013-08-07 05:45:00,61.7,59.4,18.34,ENE,61,6.0,14.0,92,0.00,,,0.00,Wunderground v.1.15,2013-08-07 09:45:00,
2013-08-07 05:50:00,61.6,59.3,18.34,NNE,13,5.0,5.0,92,0.00,,,0.00,Wunderground v.1.15,2013-08-07 09:50:00,
2013-08-07 05:55:00,61.5,59.2,18.34,ENE,60,4.0,14.0,92,0.00,,,0.00,Wunderground v.1.15,2013-08-07 09:55:00,
2013-08-07 06:00:00,61.6,59.3,18.34,NE,52,5.0,5.0,92,0.00,,,0.00,Wunderground v.1.15,2013-08-07 10:00:00,
2013-08-07 06:10:00,61.3,59.0,18.34,ENE,57,3.0,5.0,92,0.00,,,0.00,Wunderground v.1.15,2013-08-07 10:10:00,
2013-08-07 06:15:00,61.2,58.9,18.34,NNE,26,3.0,5.0,92,0.00,,,0.00,Wunderground v.1.15,2013-08-07 10:15:00,
2013-08-07 06:20:00,61.1,59.1,18.34,ENE,67,4.0,6.0,93,0.00,,,0.00,Wunderground v.1.15,2013-08-07 10:20:00,
2013-08-07 06:25:00,61.2,59.2,18.34,NE,54,5.0,6.0,93,0.00,,,0.00,Wunderground v.1.15,2013-08-07 10:25:00,
2013-08-07 06:30:00,61.2,59.2,18.34,NE,50,6.0,6.0,93,0.00,,,0.00,Wunderground v.1.15,2013-08-07 10:30:00,
2013-08-07 06:35:00,61.2,59.2,18.34,ENE,60,6.0,10.0,93,0.00,,,0.00,Wunderground v.1.15,2013-08-07 10:35:00,
2013-08-07 06:45:00,61.1,59.1,18.34,NE,53,4.0,10.0,93,0.00,,,0.00,Wunderground v.1.15,2013-08-07 10:45:00,
2013-08-07 06:50:00,61.1,59.1,18.34,NNE,31,3.0,10.0,93,0.00,,,0.00,Wunderground v.1.15,2013-08-07 10:50:00,
2013-08-07 07:00:00,61.2,59.2,18.34,NE,47,3.0,3.0,93,0.00,,,0.00,Wunderground v.1.15,2013-08-07 11:00:00,
2013-08-07 07:10:00,61.4,59.4,18.34,NNE,32,4.0,4.0,93,0.00,,,0.00,Wunderground v.1.15,2013-08-07 11:10:00,
2013-08-07 07:20:00,61.7,59.7,18.34,North,1,7.0,7.0,93,0.00,,,0.00,Wunderground v.1.15,2013-08-07 11:20:00,
2013-08-07 07:25:00,61.9,59.9,18.34,NNE,14,7.0,7.0,93,0.00,,,0.00,Wunderground v.1.15,2013-08-07 11:25:00,
2013-08-07 07:35:00,62.3,60.2,18.34,NE,47,8.0,10.0,93,0.00,,,0.00,Wunderground v.1.15,2013-08-07 11:35:00,
2013-08-07 07:40:00,62.5,60.4,18.34,ENE,76,8.0,11.0,93,0.00,,,0.00,Wunderground v.1.15,2013-08-07 11:40:00,
2013-08-07 07:45:00,62.7,60.6,18.34,NE,49,9.0,11.0,93,0.00,,,0.00,Wunderground v.1.15,2013-08-07 11:45:00,
2013-08-07 07:55:00,63.2,61.1,18.34,NE,38,7.0,12.0,93,0.00,,,0.00,Wunderground v.1.15,2013-08-07 11:55:00,
2013-08-07 08:00:00,63.6,61.5,18.34,East,93,8.0,8.0,93,0.00,,,0.00,Wunderground v.1.15,2013-08-07 12:00:00,
2013-08-07 08:10:00,64.0,61.6,18.34,ENE,58,9.0,9.0,92,0.00,,,0.00,Wunderground v.1.15,2013-08-07 12:10:00,
2013-08-07 08:15:00,64.3,61.9,18.34,NE,38,9.0,9.0,92,0.00,,,0.00,Wunderground v.1.15,2013-08-07 12:15:00,
2013-08-07 08:25:00,64.8,62.1,18.34,NE,43,10.0,15.0,91,0.00,,,0.00,Wunderground v.1.15,2013-08-07 12:25:00,
2013-08-07 08:30:00,64.9,62.2,18.34,ENE,72,11.0,11.0,91,0.00,,,0.00,Wunderground v.1.15,2013-08-07 12:30:00,
2013-08-07 08:35:00,65.1,62.4,18.34,NE,54,10.0,13.0,91,0.00,,,0.00,Wunderground v.1.15,2013-08-07 12:35:00,
2013-08-07 08:40:00,65.3,62.3,18.34,ENE,72,9.0,13.0,90,0.00,,,0.00,Wunderground v.1.15,2013-08-07 12:40:00,
2013-08-07 08:45:00,65.6,62.6,18.34,ENE,60,9.0,13.0,90,0.00,,,0.00,Wunderground v.1.15,2013-08-07 12:45:00,
2013-08-07 08:55:00,65.9,62.9,18.34,ENE,74,11.0,11.0,90,0.00,,,0.00,Wunderground v.1.15,2013-08-07 12:55:00,
2013-08-07 09:00:00,66.0,62.7,18.34,ENE,58,11.0,13.0,89,0.00,,,0.00,Wunderground v.1.15,2013-08-07 13:00:00,
2013-08-07 09:10:00,66.2,62.9,18.34,ENE,65,8.0,12.0,89,0.00,,,0.00,Wunderground v.1.15,2013-08-07 13:10:00,
2013-08-07 09:15:00,66.1,62.8,18.34,NE,56,10.0,12.0,89,0.00,,,0.00,Wunderground v.1.15,2013-08-07 13:15:00,
2013-08-07 09:20:00,66.2,62.9,18.34,NE,54,11.0,14.0,89,0.00,,,0.00,Wunderground v.1.15,2013-08-07 13:20:00,
2013-08-07 09:30:00,66.3,63.0,18.34,NE,38,11.0,11.0,89,0.00,,,0.00,Wunderground v.1.15,2013-08-07 13:30:00,
2013-08-07 09:35:00,66.5,63.2,18.34,NE,51,11.0,21.0,89,0.00,,,0.00,Wunderground v.1.15,2013-08-07 13:35:00,
2013-08-07 09:40:00,66.5,63.2,18.34,ENE,58,10.0,21.0,89,0.00,,,0.00,Wunderground v.1.15,2013-08-07 13:40:00,
2013-08-07 09:45:00,66.4,63.1,18.34,NE,51,10.0,21.0,89,0.00,,,0.00,Wunderground v.1.15,2013-08-07 13:45:00,
2013-08-07 09:50:00,66.2,62.9,18.34,SE,144,10.0,21.0,89,0.00,,,0.00,Wunderground v.1.15,2013-08-07 13:50:00,
2013-08-07 09:55:00,66.2,63.2,18.34,NE,41,9.0,21.0,90,0.00,,,0.00,Wunderground v.1.15,2013-08-07 13:55:00,
2013-08-07 10:00:00,66.1,63.1,18.34,NE,38,9.0,9.0,90,0.00,,,0.00,Wunderground v.1.15,2013-08-07 14:00:00,
2013-08-07 10:10:00,66.4,63.4,18.34,ENE,57,9.0,9.0,90,0.00,,,0.00,Wunderground v.1.15,2013-08-07 14:10:00,
2013-08-07 10:15:00,66.8,63.8,18.34,NE,44,9.0,11.0,90,0.00,,,0.00,Wunderground v.1.15,2013-08-07 14:15:00,
2013-08-07 10:20:00,66.6,63.3,18.34,NNE,24,10.0,10.0,89,0.00,,,0.00,Wunderground v.1.15,2013-08-07 14:20:00,
2013-08-07 10:25:00,66.7,63.4,18.34,East,80,10.0,11.0,89,0.00,,,0.00,Wunderground v.1.15,2013-08-07 14:25:00,
2013-08-07 10:35:00,66.5,63.2,18.34,ENE,58,12.0,18.0,89,0.00,,,0.00,Wunderground v.1.15,2013-08-07 14:35:00,
2013-08-07 10:40:00,66.5,63.2,18.34,NE,39,13.0,13.0,89,0.00,,,0.00,Wunderground v.1.15,2013-08-07 14:40:00,
2013-08-07 10:45:00,66.7,63.4,18.34,ENE,57,11.0,18.0,89,0.00,,,0.00,Wunderground v.1.15,2013-08-07 14:45:00,
2013-08-07 10:50:00,66.8,63.5,18.34,NNE,16,9.0,9.0,89,0.00,,,0.00,Wunderground v.1.15,2013-08-07 14:50:00,
2013-08-07 10:55:00,67.0,63.6,18.34,ENE,68,9.0,10.0,89,0.00,,,0.00,Wunderground v.1.15,2013-08-07 14:55:00,
2013-08-07 11:00:00,67.1,63.7,18.34,ENE,61,9.0,11.0,89,0.00,,,0.00,Wunderground v.1.15,2013-08-07 15:00:00,
2013-08-07 11:10:00,67.1,63.7,18.34,NE,51,9.0,9.0,89,0.00,,,0.00,Wunderground v.1.15,2013-08-07 15:10:00,
2013-08-07 11:15:00,67.0,63.3,18.34,East,79,9.0,9.0,88,0.00,,,0.00,Wunderground v.1.15,2013-08-07 15:15:00,
2013-08-07 11:20:00,67.0,63.6,18.34,NE,41,9.0,9.0,89,0.00,,,0.00,Wunderground v.1.15,2013-08-07 15:20:00,
2013-08-07 11:25:00,67.1,63.7,18.34,ENE,63,8.0,10.0,89,0.00,,,0.00,Wunderground v.1.15,2013-08-07 15:25:00,
2013-08-07 11:30:00,67.2,63.8,18.34,NE,34,8.0,9.0,89,0.00,,,0.00,Wunderground v.1.15,2013-08-07 15:30:00,
2013-08-07 11:35:00,67.3,63.9,18.34,ENE,62,6.0,10.0,89,0.00,,,0.00,Wunderground v.1.15,2013-08-07 15:35:00,
2013-08-07 11:40:00,67.4,64.0,18.34,ENE,65,6.0,6.0,89,0.00,,,0.00,Wunderground v.1.15,2013-08-07 15:40:00,
2013-08-07 11:45:00,67.5,64.1,18.34,NE,54,8.0,8.0,89,0.00,,,0.00,Wunderground v.1.15,2013-08-07 15:45:00,
2013-08-07 11:50:00,67.6,64.2,18.34,NE,49,8.0,18.0,89,0.00,,,0.00,Wunderground v.1.15,2013-08-07 15:50:00,
2013-08-07 11:55:00,67.6,64.2,18.34,ENE,69,8.0,18.0,89,0.00,,,0.00,Wunderground v.1.15,2013-08-07 15:55:00,
2013-08-07 12:00:00,67.6,64.2,18.34,ENE,57,8.0,8.0,89,0.00,,,0.00,Wunderground v.1.15,2013-08-07 16:00:00,
2013-08-07 12:10:00,68.0,64.6,18.34,NE,34,8.0,8.0,89,0.00,,,0.00,Wunderground v.1.15,2013-08-07 16:10:00,
2013-08-07 12:15:00,68.1,64.7,18.34,ENE,61,8.0,8.0,89,0.00,,,0.00,Wunderground v.1.15,2013-08-07 16:15:00,
2013-08-07 12:20:00,68.1,64.4,18.34,NNE,30,7.0,11.0,88,0.00,,,0.00,Wunderground v.1.15,2013-08-07 16:20:00,
2013-08-07 12:25:00,68.1,64.4,18.34,ENE,66,8.0,11.0,88,0.00,,,0.00,Wunderground v.1.15,2013-08-07 16:25:00,
2013-08-07 12:30:00,68.2,64.8,18.34,ENE,72,7.0,7.0,89,0.00,,,0.00,Wunderground v.1.15,2013-08-07 16:30:00,
2013-08-07 12:35:00,68.3,64.9,18.34,NE,53,6.0,17.0,89,0.00,,,0.00,Wunderground v.1.15,2013-08-07 16:35:00,
2013-08-07 12:45:00,68.4,64.7,18.34,NE,56,6.0,17.0,88,0.00,,,0.00,Wunderground v.1.15,2013-08-07 16:45:00,
2013-08-07 12:50:00,68.4,64.7,18.34,North,9,6.0,6.0,88,0.00,,,0.00,Wunderground v.1.15,2013-08-07 16:50:00,
2013-08-07 12:55:00,68.3,64.6,18.34,ENE,75,7.0,7.0,88,0.00,,,0.00,Wunderground v.1.15,2013-08-07 16:55:00,
2013-08-07 13:00:00,68.3,64.6,18.34,ENE,78,7.0,12.0,88,0.00,,,0.00,Wunderground v.1.15,2013-08-07 17:00:00,
2013-08-07 13:10:00,68.5,65.1,18.34,NE,49,8.0,8.0,89,0.00,,,0.00,Wunderground v.1.15,2013-08-07 17:10:00,
2013-08-07 13:15:00,68.6,65.2,18.34,NNE,17,7.0,8.0,89,0.00,,,0.00,Wunderground v.1.15,2013-08-07 17:15:00,
2013-08-07 13:20:00,68.7,65.3,18.34,NE,44,6.0,8.0,89,0.00,,,0.00,Wunderground v.1.15,2013-08-07 17:20:00,
2013-08-07 13:25:00,68.7,65.0,18.34,ENE,57,6.0,8.0,88,0.00,,,0.00,Wunderground v.1.15,2013-08-07 17:25:00,
2013-08-07 13:30:00,68.7,65.0,18.34,NE,54,8.0,8.0,88,0.00,,,0.00,Wunderground v.1.15,2013-08-07 17:30:00,
2013-08-07 13:35:00,68.6,64.9,18.34,NNE,22,7.0,9.0,88,0.00,,,0.00,Wunderground v.1.15,2013-08-07 17:35:00,
2013-08-07 13:40:00,68.5,65.1,18.34,NE,43,6.0,6.0,89,0.00,,,0.00,Wunderground v.1.15,2013-08-07 17:40:00,
2013-08-07 13:50:00,68.7,65.3,18.34,NE,51,5.0,5.0,89,0.00,,,0.00,Wunderground v.1.15,2013-08-07 17:50:00,
2013-08-07 13:55:00,68.7,65.3,18.34,ENE,58,5.0,16.0,89,0.00,,,0.00,Wunderground v.1.15,2013-08-07 17:55:00,
2013-08-07 14:00:00,68.8,65.4,18.34,ENE,70,6.0,6.0,89,0.00,,,0.00,Wunderground v.1.15,2013-08-07 18:00:00,
2013-08-07 14:10:00,68.9,65.5,18.34,ENE,61,7.0,7.0,89,0.00,,,0.00,Wunderground v.1.15,2013-08-07 18:10:00,
2013-08-07 14:15:00,68.9,65.5,18.34,ENE,73,8.0,10.0,89,0.00,,,0.00,Wunderground v.1.15,2013-08-07 18:15:00,
2013-08-07 14:20:00,68.9,65.5,18.34,ENE,62,9.0,9.0,89,0.00,,,0.00,Wunderground v.1.15,2013-08-07 18:20:00,
2013-08-07 14:25:00,68.9,65.5,18.34,ENE,70,9.0,9.0,89,0.00,,,0.00,Wunderground v.1.15,2013-08-07 18:25:00,
2013-08-07 14:30:00,69.0,65.6,18.34,ENE,57,8.0,9.0,89,0.00,,,0.00,Wunderground v.1.15,2013-08-07 18:30:00,
2013-08-07 14:35:00,69.0,65.6,18.34,North,3,8.0,14.0,89,0.00,,,0.00,Wunderground v.1.15,2013-08-07 18:35:00,
2013-08-07 14:40:00,69.1,65.7,18.34,NE,44,8.0,8.0,89,0.00,,,0.00,Wunderground v.1.15,2013-08-07 18:40:00,
2013-08-07 14:45:00,69.2,65.8,18.34,NE,51,9.0,10.0,89,0.00,,,0.00,Wunderground v.1.15,2013-08-07 18:45:00,
2013-08-07 14:55:00,69.5,66.1,18.34,NE,38,10.0,17.0,89,0.00,,,0.00,Wunderground v.1.15,2013-08-07 18:55:00,
2013-08-07 15:00:00,69.9,66.5,18.34,East,80,11.0,14.0,89,0.00,,,0.00,Wunderground v.1.15,2013-08-07 19:00:00,
2013-08-07 15:10:00,70.4,66.7,18.34,NE,54,11.0,11.0,88,0.00,,,0.00,Wunderground v.1.15,2013-08-07 19:10:00,
2013-08-07 15:15:00,70.2,66.5,18.34,NE,43,9.0,12.0,88,0.00,,,0.00,Wunderground v.1.15,2013-08-07 19:15:00,
2013-08-07 15:20:00,70.3,66.6,18.34,NE,49,10.0,10.0,88,0.00,,,0.00,Wunderground v.1.15,2013-08-07 19:20:00,
2013-08-07 15:30:00,70.9,66.8,18.34,NE,45,10.0,10.0,87,0.00,,,0.00,Wunderground v.1.15,2013-08-07 19:30:00,
2013-08-07 15:35:00,70.8,66.4,18.34,NE,36,9.0,12.0,86,0.00,,,0.00,Wunderground v.1.15,2013-08-07 19:35:00,
2013-08-07 15:40:00,70.6,66.5,18.34,NNE,26,10.0,10.0,87,0.00,,,0.00,Wunderground v.1.15,2013-08-07 19:40:00,
2013-08-07 15:45:00,70.7,66.6,18.34,ENE,59,9.0,17.0,87,0.00,,,0.00,Wunderground v.1.15,2013-08-07 19:45:00,
2013-08-07 15:50:00,70.7,66.6,18.34,NE,50,11.0,17.0,87,0.00,,,0.00,Wunderground v.1.15,2013-08-07 19:50:00,
2013-08-07 16:00:00,70.9,66.8,18.34,East,86,10.0,14.0,87,0.00,,,0.00,Wunderground v.1.15,2013-08-07 20:00:00,
2013-08-07 16:10:00,70.8,66.7,18.34,ENE,60,11.0,12.0,87,0.00,,,0.00,Wunderground v.1.15,2013-08-07 20:10:00,
2013-08-07 16:15:00,70.7,66.6,18.34,NE,48,11.0,12.0,87,0.00,,,0.00,Wunderground v.1.15,2013-08-07 20:15:00,
2013-08-07 16:20:00,70.8,66.7,18.34,ENE,65,11.0,12.0,87,0.00,,,0.00,Wunderground v.1.15,2013-08-07 20:20:00,
2013-08-07 16:25:00,70.8,66.7,18.34,ENE,75,10.0,12.0,87,0.00,,,0.00,Wunderground v.1.15,2013-08-07 20:25:00,
2013-08-07 16:35:00,70.6,66.9,18.34,NE,45,10.0,18.0,88,0.00,,,0.00,Wunderground v.1.15,2013-08-07 20:35:00,
2013-08-07 16:40:00,70.2,66.5,18.34,ENE,63,11.0,18.0,88,0.00,,,0.00,Wunderground v.1.15,2013-08-07 20:40:00,
2013-08-07 16:45:00,70.1,66.4,18.34,NE,54,13.0,18.0,88,0.00,,,0.00,Wunderground v.1.15,2013-08-07 20:45:00,
2013-08-07 16:50:00,69.9,66.2,18.34,ENE,64,12.0,12.0,88,0.00,,,0.00,Wunderground v.1.15,2013-08-07 20:50:00,
2013-08-07 16:55:00,69.7,66.3,18.34,NE,55,11.0,20.0,89,0.00,,,0.00,Wunderground v.1.15,2013-08-07 20:55:00,
2013-08-07 17:00:00,69.7,66.3,18.34,ENE,67,11.0,11.0,89,0.00,,,0.00,Wunderground v.1.15,2013-08-07 21:00:00,
2013-08-07 17:10:00,69.7,66.3,18.34,NE,37,10.0,11.0,89,0.00,,,0.00,Wunderground v.1.15,2013-08-07 21:10:00,
2013-08-07 17:15:00,69.7,66.3,18.34,NE,53,9.0,11.0,89,0.00,,,0.00,Wunderground v.1.15,2013-08-07 21:15:00,
2013-08-07 17:20:00,69.7,66.6,18.34,NE,41,8.0,8.0,90,0.00,,,0.00,Wunderground v.1.15,2013-08-07 21:20:00,
2013-08-07 17:25:00,69.7,66.3,18.34,North,6,8.0,9.0,89,0.00,,,0.00,Wunderground v.1.15,2013-08-07 21:25:00,
2013-08-07 17:35:00,69.6,66.5,18.34,NE,36,9.0,9.0,90,0.00,,,0.00,Wunderground v.1.15,2013-08-07 21:35:00,
2013-08-07 17:40:00,69.5,66.4,18.34,NE,38,9.0,9.0,90,0.00,,,0.00,Wunderground v.1.15,2013-08-07 21:40:00,
2013-08-07 17:45:00,69.6,66.5,18.34,NE,38,9.0,20.0,90,0.00,,,0.00,Wunderground v.1.15,2013-08-07 21:45:00,
2013-08-07 17:50:00,69.5,66.4,18.34,ENE,71,9.0,9.0,90,0.00,,,0.00,Wunderground v.1.15,2013-08-07 21:50:00,
2013-08-07 17:55:00,69.5,66.4,18.34,ENE,68,10.0,11.0,90,0.00,,,0.00,Wunderground v.1.15,2013-08-07 21:55:00,
2013-08-07 18:00:00,69.5,66.4,18.34,NE,51,9.0,9.0,90,0.00,,,0.00,Wunderground v.1.15,2013-08-07 22:00:00,
2013-08-07 18:10:00,69.4,66.3,18.34,NNE,21,9.0,9.0,90,0.00,,,0.00,Wunderground v.1.15,2013-08-07 22:10:00,
2013-08-07 18:15:00,69.4,66.3,18.34,ENE,68,9.0,9.0,90,0.00,,,0.00,Wunderground v.1.15,2013-08-07 22:15:00,
2013-08-07 18:20:00,69.3,66.2,18.34,ENE,57,9.0,14.0,90,0.00,,,0.00,Wunderground v.1.15,2013-08-07 22:20:00,
2013-08-07 18:25:00,69.2,66.1,18.34,ENE,58,10.0,14.0,90,0.00,,,0.00,Wunderground v.1.15,2013-08-07 22:25:00,
2013-08-07 18:30:00,69.1,66.0,18.34,NE,36,10.0,10.0,90,0.00,,,0.00,Wunderground v.1.15,2013-08-07 22:30:00,
2013-08-07 18:35:00,69.1,66.4,18.34,NE,45,9.0,10.0,91,0.00,,,0.00,Wunderground v.1.15,2013-08-07 22:35:00,
2013-08-07 18:45:00,69.0,66.3,18.34,NE,49,8.0,8.0,91,0.00,,,0.00,Wunderground v.1.15,2013-08-07 22:45:00,
2013-08-07 18:50:00,69.0,66.3,18.34,NE,41,7.0,7.0,91,0.00,,,0.00,Wunderground v.1.15,2013-08-07 22:50:00,
2013-08-07 18:55:00,69.1,66.4,18.34,ENE,57,7.0,9.0,91,0.00,,,0.00,Wunderground v.1.15,2013-08-07 22:55:00,
2013-08-07 19:00:00,69.1,66.4,18.34,NE,55,8.0,9.0,91,0.00,,,0.00,Wunderground v.1.15,2013-08-07 23:00:00,
2013-08-07 19:10:00,69.2,66.5,18.34,NNE,29,7.0,9.0,91,0.00,,,0.00,Wunderground v.1.15,2013-08-07 23:10:00,
2013-08-07 19:15:00,69.2,66.5,18.34,NE,48,9.0,9.0,91,0.00,,,0.00,Wunderground v.1.15,2013-08-07 23:15:00,
2013-08-07 19:20:00,69.1,66.4,18.34,NNE,30,9.0,9.0,91,0.00,,,0.00,Wunderground v.1.15,2013-08-07 23:20:00,
2013-08-07 19:25:00,69.0,66.3,18.34,ENE,57,9.0,11.0,91,0.00,,,0.00,Wunderground v.1.15,2013-08-07 23:25:00,
2013-08-07 19:30:00,68.9,66.2,18.34,NE,49,9.0,9.0,91,0.00,,,0.00,Wunderground v.1.15,2013-08-07 23:30:00,
2013-08-07 19:35:00,68.9,66.2,18.34,NE,45,9.0,13.0,91,0.00,,,0.00,Wunderground v.1.15,2013-08-07 23:35:00,
2013-08-07 19:40:00,68.9,66.2,18.34,NE,45,10.0,10.0,91,0.00,,,0.00,Wunderground v.1.15,2013-08-07 23:40:00,
2013-08-07 19:50:00,68.9,66.2,18.34,NE,43,7.0,19.0,91,0.00,,,0.00,Wunderground v.1.15,2013-08-07 23:50:00,
2013-08-07 19:55:00,68.9,66.2,18.34,NE,51,7.0,19.0,91,0.00,,,0.00,Wunderground v.1.15,2013-08-07 23:55:00,
2013-08-07 20:00:00,68.9,66.2,18.34,NE,50,7.0,9.0,91,0.00,,,0.00,Wunderground v.1.15,2013-08-08 00:00:00,
2013-08-07 20:10:00,68.9,66.2,18.34,NNE,32,7.0,7.0,91,0.00,,,0.00,Wunderground v.1.15,2013-08-08 00:10:00,
2013-08-07 20:15:00,68.8,66.1,18.34,NE,49,7.0,9.0,91,0.00,,,0.00,Wunderground v.1.15,2013-08-08 00:15:00,
2013-08-07 20:20:00,68.8,66.1,18.34,North,3,6.0,7.0,91,0.00,,,0.00,Wunderground v.1.15,2013-08-08 00:20:00,
2013-08-07 20:25:00,68.8,66.1,18.34,NE,41,6.0,8.0,91,0.00,,,0.00,Wunderground v.1.15,2013-08-08 00:25:00,
2013-08-07 20:30:00,68.8,66.1,18.34,NNE,20,7.0,7.0,91,0.00,,,0.00,Wunderground v.1.15,2013-08-08 00:30:00,
2013-08-07 20:35:00,68.8,66.1,18.34,NE,55,8.0,8.0,91,0.00,,,0.00,Wunderground v.1.15,2013-08-08 00:35:00,
2013-08-07 20:45:00,68.7,66.3,18.34,NE,54,7.0,16.0,92,0.00,,,0.00,Wunderground v.1.15,2013-08-08 00:45:00,
2013-08-07 20:55:00,68.5,66.1,18.34,NNE,13,6.0,16.0,92,0.00,,,0.00,Wunderground v.1.15,2013-08-08 00:55:00,
2013-08-07 21:00:00,68.5,66.1,18.34,NE,45,6.0,6.0,92,0.00,,,0.00,Wunderground v.1.15,2013-08-08 01:00:00,
2013-08-07 21:10:00,68.3,65.9,18.34,NNE,26,5.0,5.0,92,0.00,,,0.00,Wunderground v.1.15,2013-08-08 01:10:00,
2013-08-07 21:15:00,68.2,65.8,18.34,North,3,5.0,7.0,92,0.00,,,0.00,Wunderground v.1.15,2013-08-08 01:15:00,
2013-08-07 21:25:00,68.1,65.7,18.34,NE,41,6.0,7.0,92,0.00,,,0.00,Wunderground v.1.15,2013-08-08 01:25:00,
2013-08-07 21:30:00,68.1,66.0,18.34,ENE,57,6.0,8.0,93,0.00,,,0.00,Wunderground v.1.15,2013-08-08 01:30:00,
2013-08-07 21:35:00,68.1,66.0,18.34,NE,38,7.0,15.0,93,0.00,,,0.00,Wunderground v.1.15,2013-08-08 01:35:00,
2013-08-07 21:40:00,68.1,66.0,18.34,NE,47,6.0,6.0,93,0.00,,,0.00,Wunderground v.1.15,2013-08-08 01:40:00,
2013-08-07 21:45:00,68.1,66.0,18.34,NE,45,5.0,15.0,93,0.00,,,0.00,Wunderground v.1.15,2013-08-08 01:45:00,
2013-08-07 21:50:00,68.2,66.1,18.34,ENE,63,5.0,15.0,93,0.00,,,0.00,Wunderground v.1.15,2013-08-08 01:50:00,
2013-08-07 22:00:00,68.3,66.2,18.34,NNE,18,6.0,6.0,93,0.00,,,0.00,Wunderground v.1.15,2013-08-08 02:00:00,
2013-08-07 22:10:00,68.0,65.9,18.34,NNE,24,6.0,6.0,93,0.00,,,0.00,Wunderground v.1.15,2013-08-08 02:10:00,
2013-08-07 22:15:00,67.9,65.8,18.34,ENE,60,5.0,6.0,93,0.00,,,0.00,Wunderground v.1.15,2013-08-08 02:15:00,
2013-08-07 22:20:00,67.9,65.8,18.34,ENE,58,5.0,5.0,93,0.00,,,0.00,Wunderground v.1.15,2013-08-08 02:20:00,
2013-08-07 22:30:00,67.9,65.8,18.34,NE,34,6.0,6.0,93,0.00,,,0.00,Wunderground v.1.15,2013-08-08 02:30:00,
2013-08-07 22:35:00,67.9,65.8,18.34,ENE,72,6.0,13.0,93,0.00,,,0.00,Wunderground v.1.15,2013-08-08 02:35:00,
2013-08-07 22:40:00,67.8,65.7,18.34,ENE,74,7.0,13.0,93,0.00,,,0.00,Wunderground v.1.15,2013-08-08 02:40:00,
2013-08-07 22:45:00,67.9,65.8,18.34,NE,34,7.0,13.0,93,0.00,,,0.00,Wunderground v.1.15,2013-08-08 02:45:00,
2013-08-07 22:50:00,67.8,65.7,18.34,NE,55,7.0,7.0,93,0.00,,,0.00,Wunderground v.1.15,2013-08-08 02:50:00,
2013-08-07 22:55:00,67.7,65.6,18.34,NE,53,6.0,8.0,93,0.00,,,0.00,Wunderground v.1.15,2013-08-08 02:55:00,
2013-08-07 23:00:00,67.6,65.5,18.34,NE,51,6.0,6.0,93,0.00,,,0.00,Wunderground v.1.15,2013-08-08 03:00:00,
2013-08-07 23:10:00,67.6,65.8,18.34,NE,49,6.0,6.0,94,0.00,,,0.00,Wunderground v.1.15,2013-08-08 03:10:00,
2013-08-07 23:15:00,67.6,65.8,18.34,North,5,6.0,6.0,94,0.00,,,0.00,Wunderground v.1.15,2013-08-08 03:15:00,
2013-08-07 23:20:00,67.5,65.7,18.34,NE,42,6.0,9.0,94,0.00,,,0.00,Wunderground v.1.15,2013-08-08 03:20:00,
2013-08-07 23:25:00,67.5,65.7,18.34,North,9,6.0,9.0,94,0.00,,,0.00,Wunderground v.1.15,2013-08-08 03:25:00,
2013-08-07 23:35:00,67.4,65.6,18.34,NE,53,5.0,13.0,94,0.00,,,0.00,Wunderground v.1.15,2013-08-08 03:35:00,
2013-08-07 23:40:00,67.4,65.6,18.34,ENE,61,5.0,13.0,94,0.00,,,0.00,Wunderground v.1.15,2013-08-08 03:40:00,
2013-08-07 23:45:00,67.3,65.5,18.34,NE,39,4.0,13.0,94,0.00,,,0.00,Wunderground v.1.15,2013-08-08 03:45:00,
2013-08-07 23:50:00,67.3,65.5,18.34,ENE,63,5.0,13.0,94,0.00,,,0.00,Wunderground v.1.15,2013-08-08 03:50:00,
2013-08-07 23:55:00,67.4,65.6,18.34,ENE,61,6.0,13.0,94,0.00,,,0.00,Wunderground v.1.15,2013-08-08 03:55:00,